PWSweather.com
Personal Weather Stations
Station Observations
J24K28P63
Vysocina, PocatkyCZ 39464

VysocinaPocatkyCZ 39464

Lat: 49.2594238, Lon: 15.2331769

Elevation: 2011

Station Type: Vantage Pro2+

http://meteo-jirkalina.com

Latest ConditionsUpdated 6:30:18 PM GMT+01:01 Sunday, Nov 19, 2017
Currently Today's Max Today's Min Today's Average
Temperature 34.0°F1.1°C 57.7°F14.3°C 32.2°F0.1°C 38.6°F3.7°C
Dew Point 31.1°F-0.5°C 54.8°F12.7°C 29.8°F-1.2°C 35.1°F1.7°C
Winds 5.2 mph W8.4 kmh W 13.0 mph WSW20.9 kmh WSW - 5.5 mph 8.9 kmh
Wind Gusts 11.0 mph17.7 kmh 26.0 mph41.8 kmh - -
Humidity 89% 100% 72% 87%
Pressure 29.89 in1012.2 mb 29.94 in1013.9 mb 29.84 in1010.5 mb -
Precipitation - 0.32 in8.1 mm - -
Hour Temp Dew Point Humidity Winds Wind Gusts Pressure Precip Precip Rate Daily Precip Total
06:30 PM 41.3°F5.2°C 35.9°F2.2°C 81% 13.0 mph SW20.9 kmh SW 17.0 mph27.4 kmh 29.85 in1010.8 mb 0.00 in0.0 mm 0.00 in0.0 mm 0.01 in0.3 mm
06:20 PM 41.5°F5.3°C 36.1°F2.3°C 81% 9.0 mph SW14.5 kmh SW 16.0 mph25.7 kmh 29.85 in1010.8 mb 0.00 in0.0 mm 0.00 in0.0 mm 0.01 in0.3 mm
06:10 PM 41.7°F5.4°C 36.3°F2.4°C 81% 12.0 mph SW19.3 kmh SW 26.0 mph41.8 kmh 29.85 in1010.8 mb 0.00 in0.0 mm 0.00 in0.0 mm 0.01 in0.3 mm
06:00 PM 41.8°F5.4°C 36.4°F2.4°C 81% 13.0 mph SW20.9 kmh SW 23.0 mph37.0 kmh 29.85 in1010.8 mb 0.00 in0.0 mm 0.00 in0.0 mm 0.01 in0.3 mm
05:50 PM 41.8°F5.4°C 36.4°F2.4°C 81% 12.0 mph SW19.3 kmh SW 17.0 mph27.4 kmh 29.85 in1010.8 mb 0.00 in0.0 mm 0.00 in0.0 mm 0.01 in0.3 mm
05:40 PM 41.7°F5.4°C 36.3°F2.4°C 81% 9.0 mph SW14.5 kmh SW 17.0 mph27.4 kmh 29.85 in1010.8 mb 0.00 in0.0 mm 0.00 in0.0 mm 0.01 in0.3 mm
05:30 PM 41.6°F5.3°C 36.5°F2.5°C 82% 9.0 mph WSW14.5 kmh WSW 17.0 mph27.4 kmh 29.85 in1010.8 mb 0.00 in0.0 mm 0.00 in0.0 mm 0.01 in0.3 mm
05:20 PM 41.4°F5.2°C 36.3°F2.4°C 82% 10.0 mph WSW16.1 kmh WSW 17.0 mph27.4 kmh 29.85 in1010.8 mb 0.00 in0.0 mm 0.00 in0.0 mm 0.01 in0.3 mm
05:10 PM 41.5°F5.3°C 36.1°F2.3°C 81% 9.0 mph WSW14.5 kmh WSW 13.0 mph20.9 kmh 29.85 in1010.8 mb 0.00 in0.0 mm 0.00 in0.0 mm 0.01 in0.3 mm
05:00 PM 41.5°F5.3°C 36.4°F2.4°C 82% 8.0 mph SW12.9 kmh SW 13.0 mph20.9 kmh 29.85 in1010.8 mb 0.00 in0.0 mm 0.00 in0.0 mm 0.01 in0.3 mm
04:50 PM 41.3°F5.2°C 36.2°F2.3°C 82% 8.0 mph SW12.9 kmh SW 12.0 mph19.3 kmh 29.85 in1010.8 mb 0.00 in0.0 mm 0.00 in0.0 mm 0.01 in0.3 mm
04:40 PM 41.3°F5.2°C 36.2°F2.3°C 82% 7.0 mph SW11.3 kmh SW 15.0 mph24.1 kmh 29.85 in1010.8 mb 0.00 in0.0 mm 0.00 in0.0 mm 0.01 in0.3 mm
04:30 PM 41.2°F5.1°C 36.4°F2.4°C 83% 8.0 mph WSW12.9 kmh WSW 14.0 mph22.5 kmh 29.85 in1010.8 mb 0.00 in0.0 mm 0.00 in0.0 mm 0.01 in0.3 mm
04:20 PM 41.2°F5.1°C 36.4°F2.4°C 83% 13.0 mph SW20.9 kmh SW 17.0 mph27.4 kmh 29.85 in1010.8 mb 0.00 in0.0 mm 0.00 in0.0 mm 0.01 in0.3 mm
04:10 PM 41.2°F5.1°C 36.7°F2.6°C 84% 12.0 mph WSW19.3 kmh WSW 22.0 mph35.4 kmh 29.85 in1010.8 mb 0.00 in0.0 mm 0.00 in0.0 mm 0.01 in0.3 mm
04:00 PM 42.0°F5.6°C 36.3°F2.4°C 80% 13.0 mph WSW20.9 kmh WSW 18.0 mph29.0 kmh 29.84 in1010.5 mb 0.00 in0.0 mm 0.00 in0.0 mm 0.01 in0.3 mm
03:50 PM 42.2°F5.7°C 36.2°F2.3°C 79% 10.0 mph WSW16.1 kmh WSW 13.0 mph20.9 kmh 29.84 in1010.5 mb - 0.00 in0.0 mm 0.01 in0.3 mm
03:40 PM 42.2°F5.7°C 35.8°F2.1°C 78% 7.0 mph SW11.3 kmh SW 9.0 mph14.5 kmh 29.84 in1010.5 mb - 0.00 in0.0 mm 0.01 in0.3 mm
03:30 PM 42.3°F5.7°C 35.9°F2.2°C 78% 10.0 mph SW16.1 kmh SW 16.0 mph25.7 kmh 29.84 in1010.5 mb - 0.00 in0.0 mm 0.01 in0.3 mm
03:20 PM 42.4°F5.8°C 35.7°F2.1°C 77% 10.0 mph W16.1 kmh W 14.0 mph22.5 kmh 29.84 in1010.5 mb - 0.00 in0.0 mm 0.01 in0.3 mm
03:10 PM 42.2°F5.7°C 35.8°F2.1°C 78% 12.0 mph SW19.3 kmh SW 20.0 mph32.2 kmh 29.84 in1010.5 mb - 0.00 in0.0 mm 0.01 in0.3 mm
03:00 PM 42.1°F5.6°C 36.1°F2.3°C 79% 8.0 mph SW12.9 kmh SW 15.0 mph24.1 kmh 29.84 in1010.5 mb 0.00 in0.0 mm 0.00 in0.0 mm 0.01 in0.3 mm
02:50 PM 42.2°F5.7°C 35.8°F2.1°C 78% 7.0 mph SW11.3 kmh SW 10.0 mph16.1 kmh 29.84 in1010.5 mb - 0.00 in0.0 mm 0.01 in0.3 mm
02:40 PM 42.4°F5.8°C 36.0°F2.2°C 78% 8.0 mph SSW12.9 kmh SSW 12.0 mph19.3 kmh 29.84 in1010.5 mb - 0.00 in0.0 mm 0.01 in0.3 mm
02:30 PM 42.5°F5.8°C 36.2°F2.3°C 78% 7.0 mph WSW11.3 kmh WSW 12.0 mph19.3 kmh 29.84 in1010.5 mb - 0.00 in0.0 mm 0.01 in0.3 mm
02:20 PM 42.8°F6.0°C 36.1°F2.3°C 77% 8.0 mph WSW12.9 kmh WSW 14.0 mph22.5 kmh 29.84 in1010.5 mb - 0.00 in0.0 mm 0.01 in0.3 mm
02:10 PM 42.9°F6.1°C 36.2°F2.3°C 77% 8.0 mph SW12.9 kmh SW 13.0 mph20.9 kmh 29.85 in1010.8 mb - 0.00 in0.0 mm 0.01 in0.3 mm
02:00 PM 43.1°F6.2°C 36.4°F2.4°C 77% 8.0 mph SW12.9 kmh SW 10.0 mph16.1 kmh 29.85 in1010.8 mb - 0.00 in0.0 mm 0.01 in0.3 mm
01:50 PM 42.8°F6.0°C 36.7°F2.6°C 79% 9.0 mph WSW14.5 kmh WSW 15.0 mph24.1 kmh 29.86 in1011.2 mb - 0.00 in0.0 mm 0.01 in0.3 mm
01:40 PM 42.6°F5.9°C 36.2°F2.3°C 78% 10.0 mph WSW16.1 kmh WSW 16.0 mph25.7 kmh 29.86 in1011.2 mb - 0.00 in0.0 mm 0.01 in0.3 mm
01:30 PM 42.3°F5.7°C 36.8°F2.7°C 81% 9.0 mph WSW14.5 kmh WSW 14.0 mph22.5 kmh 29.86 in1011.2 mb - 0.01 in0.3 mm 0.01 in0.3 mm
01:20 PM 57.7°F14.3°C 54.8°F12.7°C 90% Calm Calm -- 29.89 in1012.2 mb - 0.00 in0.0 mm 0.01 in0.3 mm
01:10 PM 42.4°F5.8°C 36.7°F2.6°C 80% 6.0 mph SW9.7 kmh SW 10.0 mph16.1 kmh 29.86 in1011.2 mb - 0.00 in0.0 mm 0.01 in0.3 mm
01:00 PM 43.0°F6.1°C 36.0°F2.2°C 76% 8.0 mph SW12.9 kmh SW 14.0 mph22.5 kmh 29.86 in1011.2 mb - 0.00 in0.0 mm 0.01 in0.3 mm
12:50 PM 43.2°F6.2°C 36.2°F2.3°C 76% 10.0 mph SW16.1 kmh SW 15.0 mph24.1 kmh 29.86 in1011.2 mb - 0.00 in0.0 mm 0.01 in0.3 mm
12:40 PM 42.7°F5.9°C 35.7°F2.1°C 76% 7.0 mph SW11.3 kmh SW 12.0 mph19.3 kmh 29.86 in1011.2 mb - 0.00 in0.0 mm 0.01 in0.3 mm
12:30 PM 43.0°F6.1°C 36.3°F2.4°C 77% 6.0 mph SW9.7 kmh SW 9.0 mph14.5 kmh 29.86 in1011.2 mb - 0.00 in0.0 mm 0.01 in0.3 mm
12:20 PM 43.5°F6.4°C 36.1°F2.3°C 75% 7.0 mph SW11.3 kmh SW 12.0 mph19.3 kmh 29.86 in1011.2 mb - 0.00 in0.0 mm 0.01 in0.3 mm
12:10 PM 44.5°F6.9°C 36.4°F2.4°C 73% 10.0 mph WSW16.1 kmh WSW 14.0 mph22.5 kmh 29.86 in1011.2 mb - 0.00 in0.0 mm 0.01 in0.3 mm
12:00 PM 44.6°F7.0°C 37.5°F3.1°C 76% 8.0 mph WSW12.9 kmh WSW 12.0 mph19.3 kmh 29.86 in1011.2 mb - 0.00 in0.0 mm 0.01 in0.3 mm
11:50 AM 43.0°F6.1°C 35.6°F2.0°C 75% 7.0 mph WSW11.3 kmh WSW 12.0 mph19.3 kmh 29.86 in1011.2 mb - 0.00 in0.0 mm 0.01 in0.3 mm
11:40 AM 43.6°F6.4°C 36.2°F2.3°C 75% 9.0 mph SW14.5 kmh SW 15.0 mph24.1 kmh 29.86 in1011.2 mb - 0.00 in0.0 mm 0.01 in0.3 mm
11:30 AM 43.1°F6.2°C 36.4°F2.4°C 77% 7.0 mph SW11.3 kmh SW 12.0 mph19.3 kmh 29.86 in1011.2 mb - 0.00 in0.0 mm 0.01 in0.3 mm
11:20 AM 44.0°F6.7°C 35.9°F2.2°C 73% 10.0 mph SW16.1 kmh SW 16.0 mph25.7 kmh 29.86 in1011.2 mb - 0.00 in0.0 mm 0.01 in0.3 mm
11:10 AM 45.2°F7.3°C 36.7°F2.6°C 72% 13.0 mph WSW20.9 kmh WSW 17.0 mph27.4 kmh 29.86 in1011.2 mb - 0.00 in0.0 mm 0.01 in0.3 mm
11:00 AM 44.9°F7.2°C 38.1°F3.4°C 77% 6.0 mph SW9.7 kmh SW 9.0 mph14.5 kmh 29.86 in1011.2 mb - 0.00 in0.0 mm 0.01 in0.3 mm
10:50 AM 45.3°F7.4°C 38.2°F3.4°C 76% 9.0 mph WSW14.5 kmh WSW 13.0 mph20.9 kmh 29.87 in1011.5 mb - 0.00 in0.0 mm 0.01 in0.3 mm
10:40 AM 45.1°F7.3°C 39.0°F3.9°C 79% 6.0 mph SW9.7 kmh SW 13.0 mph20.9 kmh 29.87 in1011.5 mb - 0.00 in0.0 mm 0.01 in0.3 mm
10:30 AM 44.0°F6.7°C 39.1°F3.9°C 83% 7.0 mph WSW11.3 kmh WSW 13.0 mph20.9 kmh 29.87 in1011.5 mb - 0.00 in0.0 mm 0.01 in0.3 mm
10:20 AM 42.2°F5.7°C 38.3°F3.5°C 86% 5.0 mph WSW8.0 kmh WSW 9.0 mph14.5 kmh 29.88 in1011.9 mb - 0.00 in0.0 mm 0.01 in0.3 mm
10:10 AM 40.5°F4.7°C 37.2°F2.9°C 88% 5.0 mph SW8.0 kmh SW 5.0 mph8.0 kmh 29.87 in1011.5 mb - 0.00 in0.0 mm 0.01 in0.3 mm
10:00 AM 40.8°F4.9°C 38.1°F3.4°C 90% 5.0 mph SSW8.0 kmh SSW 6.0 mph9.7 kmh 29.87 in1011.5 mb - 0.00 in0.0 mm 0.01 in0.3 mm
09:50 AM 39.8°F4.3°C 37.9°F3.3°C 93% 5.0 mph SW8.0 kmh SW 6.0 mph9.7 kmh 29.87 in1011.5 mb - 0.00 in0.0 mm 0.01 in0.3 mm
09:40 AM 38.8°F3.8°C 36.9°F2.7°C 93% 5.0 mph SW8.0 kmh SW 6.0 mph9.7 kmh 29.87 in1011.5 mb - 0.00 in0.0 mm 0.01 in0.3 mm
09:30 AM 38.4°F3.6°C 36.6°F2.6°C 93% 5.0 mph SSW8.0 kmh SSW 6.0 mph9.7 kmh 29.87 in1011.5 mb - 0.00 in0.0 mm 0.01 in0.3 mm
09:20 AM 38.8°F3.8°C 36.9°F2.7°C 93% 6.0 mph SSW9.7 kmh SSW 7.0 mph11.3 kmh 29.87 in1011.5 mb - 0.00 in0.0 mm 0.01 in0.3 mm
09:10 AM 38.7°F3.7°C 37.4°F3.0°C 95% 5.0 mph SSW8.0 kmh SSW 6.0 mph9.7 kmh 29.87 in1011.5 mb - 0.00 in0.0 mm 0.01 in0.3 mm
09:00 AM 38.0°F3.3°C 36.7°F2.6°C 95% 3.0 mph SW4.8 kmh SW 8.0 mph12.9 kmh 29.87 in1011.5 mb - 0.00 in0.0 mm 0.01 in0.3 mm
08:50 AM 37.5°F3.1°C 36.5°F2.5°C 96% 5.0 mph SW8.0 kmh SW 7.0 mph11.3 kmh 29.87 in1011.5 mb - 0.00 in0.0 mm 0.01 in0.3 mm
08:40 AM 37.2°F2.9°C 36.1°F2.3°C 96% 6.0 mph SW9.7 kmh SW 8.0 mph12.9 kmh 29.87 in1011.5 mb - 0.00 in0.0 mm 0.01 in0.3 mm
08:30 AM 36.7°F2.6°C 35.9°F2.2°C 97% 6.0 mph SW9.7 kmh SW 12.0 mph19.3 kmh 29.86 in1011.2 mb - 0.00 in0.0 mm 0.01 in0.3 mm
08:20 AM 36.1°F2.3°C 35.3°F1.8°C 97% 5.0 mph SW8.0 kmh SW 7.0 mph11.3 kmh 29.87 in1011.5 mb - 0.00 in0.0 mm 0.01 in0.3 mm
08:10 AM 35.7°F2.1°C 34.7°F1.5°C 96% 5.0 mph SW8.0 kmh SW 7.0 mph11.3 kmh 29.87 in1011.5 mb - 0.00 in0.0 mm 0.01 in0.3 mm
08:00 AM 35.1°F1.7°C 34.1°F1.2°C 96% 2.0 mph SW3.2 kmh SW 3.0 mph4.8 kmh 29.87 in1011.5 mb - 0.00 in0.0 mm 0.01 in0.3 mm
07:50 AM 34.8°F1.6°C 33.8°F1.0°C 96% 5.0 mph SW8.0 kmh SW 6.0 mph9.7 kmh 29.86 in1011.2 mb - 0.00 in0.0 mm 0.01 in0.3 mm
07:40 AM 35.0°F1.7°C 34.0°F1.1°C 96% 5.0 mph SW8.0 kmh SW 6.0 mph9.7 kmh 29.86 in1011.2 mb 0.00 in0.0 mm 0.00 in0.0 mm 0.01 in0.3 mm
07:30 AM 35.5°F1.9°C 34.5°F1.4°C 96% 2.0 mph SW3.2 kmh SW 6.0 mph9.7 kmh 29.86 in1011.2 mb 0.00 in0.0 mm 0.00 in0.0 mm 0.01 in0.3 mm
07:20 AM 36.4°F2.4°C 35.4°F1.9°C 96% 2.0 mph SW3.2 kmh SW 3.0 mph4.8 kmh 29.87 in1011.5 mb 0.00 in0.0 mm 0.00 in0.0 mm 0.01 in0.3 mm
07:10 AM 36.4°F2.4°C 35.4°F1.9°C 96% 1.0 mph SW1.6 kmh SW 5.0 mph8.0 kmh 29.86 in1011.2 mb 0.00 in0.0 mm 0.00 in0.0 mm 0.01 in0.3 mm
07:00 AM 36.2°F2.3°C 35.2°F1.8°C 96% 3.0 mph SW4.8 kmh SW 5.0 mph8.0 kmh 29.86 in1011.2 mb 0.00 in0.0 mm 0.00 in0.0 mm 0.01 in0.3 mm
06:50 AM 35.9°F2.2°C 34.9°F1.6°C 96% 3.0 mph SW4.8 kmh SW 6.0 mph9.7 kmh 29.86 in1011.2 mb 0.00 in0.0 mm 0.00 in0.0 mm 0.01 in0.3 mm
06:40 AM 36.4°F2.4°C 35.4°F1.9°C 96% 5.0 mph SW8.0 kmh SW 8.0 mph12.9 kmh 29.86 in1011.2 mb 0.00 in0.0 mm 0.00 in0.0 mm 0.01 in0.3 mm
06:30 AM 36.5°F2.5°C 35.5°F1.9°C 96% 5.0 mph SSW8.0 kmh SSW 8.0 mph12.9 kmh 29.86 in1011.2 mb 0.00 in0.0 mm 0.00 in0.0 mm 0.01 in0.3 mm
06:20 AM 36.3°F2.4°C 35.3°F1.8°C 96% 2.0 mph SW3.2 kmh SW 6.0 mph9.7 kmh 29.87 in1011.5 mb 0.00 in0.0 mm 0.00 in0.0 mm 0.01 in0.3 mm
06:10 AM 35.9°F2.2°C 34.9°F1.6°C 96% 5.0 mph SW8.0 kmh SW 6.0 mph9.7 kmh 29.87 in1011.5 mb 0.00 in0.0 mm 0.00 in0.0 mm 0.01 in0.3 mm
06:00 AM 35.3°F1.8°C 34.3°F1.3°C 96% 3.0 mph SW4.8 kmh SW 6.0 mph9.7 kmh 29.87 in1011.5 mb 0.00 in0.0 mm 0.00 in0.0 mm 0.01 in0.3 mm
05:50 AM 35.3°F1.8°C 34.3°F1.3°C 96% 3.0 mph SW4.8 kmh SW 3.0 mph4.8 kmh 29.87 in1011.5 mb 0.00 in0.0 mm 0.00 in0.0 mm 0.01 in0.3 mm
05:40 AM 35.4°F1.9°C 34.1°F1.2°C 95% 5.0 mph SW8.0 kmh SW 7.0 mph11.3 kmh 29.87 in1011.5 mb 0.00 in0.0 mm 0.00 in0.0 mm 0.01 in0.3 mm
05:30 AM 36.4°F2.4°C 35.4°F1.9°C 96% 3.0 mph SW4.8 kmh SW 5.0 mph8.0 kmh 29.87 in1011.5 mb 0.00 in0.0 mm 0.00 in0.0 mm 0.01 in0.3 mm
05:20 AM 36.7°F2.6°C 35.7°F2.1°C 96% 3.0 mph SW4.8 kmh SW 5.0 mph8.0 kmh 29.88 in1011.9 mb 0.00 in0.0 mm 0.00 in0.0 mm 0.01 in0.3 mm
05:10 AM 36.2°F2.3°C 35.2°F1.8°C 96% 2.0 mph WSW3.2 kmh WSW 7.0 mph11.3 kmh 29.88 in1011.9 mb 0.00 in0.0 mm 0.00 in0.0 mm 0.01 in0.3 mm
05:00 AM 35.2°F1.8°C 33.9°F1.1°C 95% 2.0 mph WSW3.2 kmh WSW 3.0 mph4.8 kmh 29.88 in1011.9 mb 0.00 in0.0 mm 0.00 in0.0 mm 0.01 in0.3 mm
04:50 AM 35.3°F1.8°C 33.4°F0.8°C 93% 1.0 mph W1.6 kmh W 3.0 mph4.8 kmh 29.89 in1012.2 mb 0.00 in0.0 mm 0.00 in0.0 mm 0.01 in0.3 mm
04:40 AM 36.6°F2.6°C 34.8°F1.6°C 93% 1.0 mph W1.6 kmh W 3.0 mph4.8 kmh 29.89 in1012.2 mb 0.00 in0.0 mm 0.00 in0.0 mm 0.01 in0.3 mm
04:30 AM 38.1°F3.4°C 36.0°F2.2°C 92% 3.0 mph W4.8 kmh W 7.0 mph11.3 kmh 29.89 in1012.2 mb 0.00 in0.0 mm 0.00 in0.0 mm 0.01 in0.3 mm
04:20 AM 38.7°F3.7°C 36.0°F2.2°C 90% 3.0 mph NW4.8 kmh NW 10.0 mph16.1 kmh 29.89 in1012.2 mb 0.00 in0.0 mm 0.00 in0.0 mm 0.01 in0.3 mm
04:10 AM 38.9°F3.8°C 36.2°F2.3°C 90% Calm Calm 2.0 mph3.2 kmh 29.89 in1012.2 mb 0.00 in0.0 mm 0.00 in0.0 mm 0.01 in0.3 mm
04:00 AM 39.1°F3.9°C 36.1°F2.3°C 89% Calm Calm 2.0 mph3.2 kmh 29.89 in1012.2 mb 0.00 in0.0 mm 0.00 in0.0 mm 0.01 in0.3 mm
03:50 AM 39.1°F3.9°C 36.1°F2.3°C 89% 2.0 mph SW3.2 kmh SW 5.0 mph8.0 kmh 29.89 in1012.2 mb 0.00 in0.0 mm 0.00 in0.0 mm 0.01 in0.3 mm
03:40 AM 38.8°F3.8°C 35.8°F2.1°C 89% 3.0 mph SW4.8 kmh SW 3.0 mph4.8 kmh 29.89 in1012.2 mb 0.00 in0.0 mm 0.00 in0.0 mm 0.01 in0.3 mm
03:30 AM 38.4°F3.6°C 35.5°F1.9°C 89% 3.0 mph SW4.8 kmh SW 9.0 mph14.5 kmh 29.89 in1012.2 mb 0.00 in0.0 mm 0.00 in0.0 mm 0.01 in0.3 mm
03:20 AM 38.1°F3.4°C 34.9°F1.6°C 88% 2.0 mph SW3.2 kmh SW 3.0 mph4.8 kmh 29.89 in1012.2 mb 0.00 in0.0 mm 0.00 in0.0 mm 0.01 in0.3 mm
03:10 AM 38.8°F3.8°C 35.3°F1.8°C 87% 3.0 mph SW4.8 kmh SW 5.0 mph8.0 kmh 29.89 in1012.2 mb 0.00 in0.0 mm 0.00 in0.0 mm 0.01 in0.3 mm
03:00 AM 39.2°F4.0°C 35.7°F2.1°C 87% 5.0 mph WSW8.0 kmh WSW 8.0 mph12.9 kmh 29.89 in1012.2 mb 0.00 in0.0 mm 0.00 in0.0 mm 0.01 in0.3 mm
02:50 AM 39.4°F4.1°C 35.6°F2.0°C 86% 8.0 mph WSW12.9 kmh WSW 12.0 mph19.3 kmh 29.90 in1012.5 mb 0.00 in0.0 mm 0.00 in0.0 mm 0.01 in0.3 mm
02:40 AM 39.4°F4.1°C 35.5°F1.9°C 86% 6.0 mph WSW9.7 kmh WSW 9.0 mph14.5 kmh 29.90 in1012.5 mb 0.00 in0.0 mm 0.00 in0.0 mm 0.01 in0.3 mm
02:30 AM 39.6°F4.2°C 35.5°F1.9°C 85% 7.0 mph WSW11.3 kmh WSW 12.0 mph19.3 kmh 29.91 in1012.9 mb 0.00 in0.0 mm 0.00 in0.0 mm 0.01 in0.3 mm
02:20 AM 39.7°F4.3°C 35.6°F2.0°C 85% 6.0 mph SW9.7 kmh SW 10.0 mph16.1 kmh 29.91 in1012.9 mb 0.00 in0.0 mm 0.00 in0.0 mm 0.01 in0.3 mm
02:10 AM 39.9°F4.4°C 35.5°F1.9°C 84% 6.0 mph SW9.7 kmh SW 12.0 mph19.3 kmh 29.91 in1012.9 mb 0.00 in0.0 mm 0.00 in0.0 mm 0.01 in0.3 mm
02:00 AM 40.0°F4.4°C 35.6°F2.0°C 84% 9.0 mph SW14.5 kmh SW 16.0 mph25.7 kmh 29.91 in1012.9 mb 0.00 in0.0 mm 0.00 in0.0 mm 0.01 in0.3 mm
01:50 AM 40.0°F4.4°C 35.8°F2.1°C 85% 6.0 mph SW9.7 kmh SW 12.0 mph19.3 kmh 29.92 in1013.2 mb 0.01 in0.3 mm 0.06 in1.5 mm 0.01 in0.3 mm
01:40 AM 40.0°F4.4°C 35.9°F2.2°C 85% 6.0 mph WSW9.7 kmh WSW 8.0 mph12.9 kmh 29.92 in1013.2 mb 0.00 in0.0 mm 0.00 in0.0 mm 0.00 in0.0 mm
01:30 AM 40.1°F4.5°C 35.6°F2.0°C 84% 5.0 mph WSW8.0 kmh WSW 5.0 mph8.0 kmh 29.91 in1012.9 mb 0.00 in0.0 mm 0.00 in0.0 mm 0.00 in0.0 mm
01:20 AM 40.0°F4.4°C 35.6°F2.0°C 84% 6.0 mph WSW9.7 kmh WSW 8.0 mph12.9 kmh 29.92 in1013.2 mb 0.00 in0.0 mm 0.00 in0.0 mm 0.00 in0.0 mm
01:10 AM 39.9°F4.4°C 35.8°F2.1°C 85% 7.0 mph WSW11.3 kmh WSW 13.0 mph20.9 kmh 29.92 in1013.2 mb 0.00 in0.0 mm 0.00 in0.0 mm 0.00 in0.0 mm
01:00 AM 39.9°F4.4°C 35.8°F2.1°C 85% 5.0 mph WSW8.0 kmh WSW 9.0 mph14.5 kmh 29.92 in1013.2 mb 0.00 in0.0 mm 0.00 in0.0 mm 0.00 in0.0 mm
12:30 AM 39.8°F4.3°C 35.7°F2.1°C 85% 5.0 mph SW8.0 kmh SW 12.0 mph19.3 kmh 29.93 in1013.5 mb 0.00 in0.0 mm 0.00 in0.0 mm 0.00 in0.0 mm
12:10 AM 40.0°F4.4°C 35.6°F2.0°C 84% 8.0 mph WSW12.9 kmh WSW 12.0 mph19.3 kmh 29.94 in1013.9 mb 0.00 in0.0 mm 0.00 in0.0 mm 0.00 in0.0 mm
12:00 AM 39.9°F4.4°C 35.5°F1.9°C 84% 10.0 mph WSW16.1 kmh WSW 12.0 mph19.3 kmh 29.94 in1013.9 mb 0.00 in0.0 mm 0.00 in0.0 mm 0.00 in0.0 mm